createdAt,value
2022-10-06T00:00:50.276Z,74.41
2022-10-06T00:01:50.371Z,74.6
2022-10-06T00:02:50.149Z,74.6
2022-10-06T00:03:50.298Z,74.6
2022-10-06T00:04:50.311Z,74.31
2022-10-06T00:05:50.337Z,74.51
2022-10-06T00:06:50.353Z,74.6
2022-10-06T00:07:50.124Z,74.6
2022-10-06T00:08:50.136Z,74.51
2022-10-06T00:09:50.161Z,75.18
2022-10-06T00:10:50.437Z,74.79
2022-10-06T00:11:50.456Z,74.89
2022-10-06T00:12:50.473Z,74.69
2022-10-06T00:13:50.237Z,74.89
2022-10-06T00:14:50.515Z,75.18
2022-10-06T00:15:50.692Z,75.46
2022-10-06T00:16:50.583Z,75.08
2022-10-06T00:17:50.597Z,75.18
2022-10-06T00:18:50.339Z,75.18
2022-10-06T00:19:50.618Z,75.56
2022-10-06T00:20:50.635Z,75.95
2022-10-06T00:21:50.393Z,76.32
2022-10-06T00:22:50.681Z,75.37
2022-10-06T00:23:50.440Z,75.75
2022-10-06T00:24:50.463Z,76.14
2022-10-06T00:25:50.473Z,75.75
2022-10-06T00:26:50.764Z,76.62
2022-10-06T00:27:50.520Z,76.42
2022-10-06T00:28:50.871Z,77.09
2022-10-06T00:29:51.214Z,76.81
2022-10-06T00:30:51.124Z,77.19
2022-10-06T00:31:50.854Z,77.48
2022-10-06T00:32:50.900Z,77.48
2022-10-06T00:33:50.923Z,77.67
2022-10-06T00:34:50.921Z,78.05
2022-10-06T00:35:50.948Z,77.67
2022-10-06T00:36:50.958Z,77.58
2022-10-06T00:37:50.979Z,77.38
2022-10-06T00:38:50.739Z,77
2022-10-06T00:39:50.764Z,77.09
2022-10-06T00:40:51.039Z,76.62
2022-10-06T00:41:50.797Z,77
2022-10-06T00:42:51.083Z,77.19
2022-10-06T00:43:51.094Z,77
2022-10-06T00:44:51.127Z,77.09
2022-10-06T00:45:51.180Z,77.19
2022-10-06T00:46:51.158Z,77.38
2022-10-06T00:47:51.181Z,77.38
2022-10-06T00:48:51.299Z,76.9
2022-10-06T00:49:51.242Z,77.38
2022-10-06T00:50:51.244Z,76.81
2022-10-06T00:51:51.260Z,77
2022-10-06T00:52:51.017Z,77
2022-10-06T00:53:51.303Z,77.38
2022-10-06T00:54:51.065Z,77.29
2022-10-06T00:55:51.343Z,77.19
2022-10-06T00:56:51.356Z,77.38
2022-10-06T00:57:51.384Z,77.09
2022-10-06T00:58:51.141Z,77.19
2022-10-06T00:59:51.420Z,76.81
2022-10-06T01:00:51.435Z,77
2022-10-06T01:01:51.574Z,77.09
2022-10-06T01:02:51.541Z,77.09
2022-10-06T01:03:51.509Z,77.19
2022-10-06T01:04:51.538Z,77
2022-10-06T01:05:51.566Z,77.09
2022-10-06T01:06:51.300Z,76.71
2022-10-06T01:07:51.582Z,77.19
2022-10-06T01:08:51.592Z,77.29
2022-10-06T01:09:51.361Z,76.81
2022-10-06T01:10:51.378Z,77.19
2022-10-06T01:11:51.656Z,77.19
2022-10-06T01:12:51.674Z,77.19
2022-10-06T01:13:51.693Z,76.62
2022-10-06T01:14:51.713Z,77.09
2022-10-06T01:15:51.865Z,77.19
2022-10-06T01:16:51.757Z,77.19
2022-10-06T01:17:51.777Z,77.15
2022-10-06T01:18:51.799Z,77.19
2022-10-06T01:19:51.819Z,76.57
2022-10-06T01:20:51.986Z,76.67
2022-10-06T01:21:51.901Z,77.19
2022-10-06T01:22:51.873Z,77.15
2022-10-06T01:23:51.897Z,76.62
2022-10-06T01:24:51.911Z,76.9
2022-10-06T01:25:51.688Z,77.09
2022-10-06T01:26:51.951Z,77.15
2022-10-06T01:27:51.719Z,76.96
2022-10-06T01:28:52.079Z,77.15
2022-10-06T01:29:52.415Z,77.25
2022-10-06T01:30:52.155Z,77.15
2022-10-06T01:31:52.057Z,77.15
2022-10-06T01:32:52.072Z,77.15
2022-10-06T01:33:52.097Z,77.06
2022-10-06T01:34:52.111Z,77.15
2022-10-06T01:35:51.872Z,77.15
2022-10-06T01:36:52.194Z,77.15
2022-10-06T01:37:52.197Z,77.15
2022-10-06T01:38:52.198Z,77.06
2022-10-06T01:39:52.219Z,76.96
2022-10-06T01:40:52.230Z,77.25
2022-10-06T01:41:52.254Z,77.25
2022-10-06T01:42:52.268Z,76.96
2022-10-06T01:43:52.285Z,77.06
2022-10-06T01:44:52.049Z,76.96
2022-10-06T01:45:52.068Z,76.96
2022-10-06T01:46:52.540Z,76.96
2022-10-06T01:47:52.105Z,76.96
2022-10-06T01:48:52.391Z,76.96
2022-10-06T01:49:52.405Z,77.06
2022-10-06T01:50:52.434Z,76.96
2022-10-06T01:51:52.445Z,76.96
2022-10-06T01:52:52.489Z,76.96
2022-10-06T01:53:52.505Z,77.06
2022-10-06T01:54:52.514Z,76.96
2022-10-06T01:55:52.273Z,77.15
2022-10-06T01:56:52.545Z,77.06
2022-10-06T01:57:52.310Z,76.96
2022-10-06T01:58:52.324Z,77.06
2022-10-06T01:59:57.149Z,76.86
2022-10-06T02:00:52.624Z,77.15
2022-10-06T02:01:52.928Z,77.15
2022-10-06T02:02:52.410Z,76.77
2022-10-06T02:03:52.517Z,77.06
2022-10-06T02:04:52.701Z,77.15
2022-10-06T02:05:52.743Z,76.77
2022-10-06T02:06:52.745Z,77.15
2022-10-06T02:07:52.758Z,77.25
2022-10-06T02:08:52.815Z,77.15
2022-10-06T02:09:52.822Z,77.34
2022-10-06T02:10:52.822Z,77.34
2022-10-06T02:11:52.580Z,77.34
2022-10-06T02:12:52.860Z,77.06
2022-10-06T02:13:52.621Z,77.15
2022-10-06T02:14:52.902Z,76.92
2022-10-06T02:15:52.988Z,77.06
2022-10-06T02:16:52.938Z,76.77
2022-10-06T02:17:52.699Z,76.92
2022-10-06T02:18:52.987Z,77.06
2022-10-06T02:19:52.740Z,77.06
2022-10-06T02:20:53.017Z,77.06
2022-10-06T02:21:53.034Z,77.44
2022-10-06T02:22:52.806Z,77.34
2022-10-06T02:23:52.820Z,77.44
2022-10-06T02:24:52.862Z,77.11
2022-10-06T02:25:53.193Z,77.34
2022-10-06T02:26:53.138Z,77.15
2022-10-06T02:27:52.902Z,77.15
2022-10-06T02:28:53.021Z,77.11
2022-10-06T02:29:53.485Z,77.34
2022-10-06T02:30:53.401Z,77.21
2022-10-06T02:31:53.351Z,77.59
2022-10-06T02:32:53.352Z,77.31
2022-10-06T02:33:53.373Z,77.21
2022-10-06T02:34:53.389Z,77.31
2022-10-06T02:35:53.362Z,77.21
2022-10-06T02:36:53.077Z,77.31
2022-10-06T02:37:53.098Z,77.31
2022-10-06T02:38:53.369Z,77.59
2022-10-06T02:39:53.391Z,77.59
2022-10-06T02:40:53.431Z,77.4
2022-10-06T02:41:53.458Z,77.4
2022-10-06T02:42:53.443Z,77.59
2022-10-06T02:43:53.469Z,77.78
2022-10-06T02:44:53.487Z,77.78
2022-10-06T02:45:53.502Z,77.5
2022-10-06T02:46:53.434Z,77.4
2022-10-06T02:47:53.541Z,77.5
2022-10-06T02:48:53.566Z,77.5
2022-10-06T02:49:53.587Z,77.59
2022-10-06T02:50:53.401Z,77.5
2022-10-06T02:51:53.422Z,77.11
2022-10-06T02:52:53.642Z,77.31
2022-10-06T02:53:53.663Z,77.5
2022-10-06T02:54:53.678Z,77.5
2022-10-06T02:55:53.697Z,77.4
2022-10-06T02:56:53.737Z,77.59
2022-10-06T02:57:53.767Z,77.5
2022-10-06T02:58:53.494Z,77.59
2022-10-06T02:59:53.779Z,77.4
2022-10-06T03:00:53.554Z,77.97
2022-10-06T03:01:53.797Z,78.07
2022-10-06T03:02:54.017Z,77.78
2022-10-06T03:03:53.876Z,77.97
2022-10-06T03:04:53.866Z,77.88
2022-10-06T03:05:53.884Z,77.97
2022-10-06T03:06:53.906Z,77.88
2022-10-06T03:07:53.939Z,77.78
2022-10-06T03:08:53.951Z,77.78
2022-10-06T03:09:53.974Z,77.69
2022-10-06T03:10:53.729Z,77.88
2022-10-06T03:11:54.079Z,77.69
2022-10-06T03:12:54.064Z,78.07
2022-10-06T03:13:54.083Z,78.07
2022-10-06T03:14:54.091Z,77.78
2022-10-06T03:15:53.906Z,78.27
2022-10-06T03:16:54.226Z,78.17
2022-10-06T03:17:54.129Z,78.07
2022-10-06T03:18:54.140Z,78.07
2022-10-06T03:19:53.908Z,77.97
2022-10-06T03:20:54.181Z,77.88
2022-10-06T03:21:53.952Z,77.88
2022-10-06T03:22:54.218Z,78.07
2022-10-06T03:23:54.250Z,77.78
2022-10-06T03:24:54.268Z,78.36
2022-10-06T03:25:54.279Z,77.88
2022-10-06T03:26:54.040Z,78.03
2022-10-06T03:27:54.057Z,78.45
2022-10-06T03:28:54.420Z,78.27
2022-10-06T03:29:54.579Z,77.88
2022-10-06T03:30:54.379Z,78.22
2022-10-06T03:31:54.405Z,78.03
2022-10-06T03:32:54.420Z,78.13
2022-10-06T03:33:54.171Z,78.22
2022-10-06T03:34:54.530Z,78.22
2022-10-06T03:35:54.474Z,78.07
2022-10-06T03:36:54.498Z,78.32
2022-10-06T03:37:54.511Z,78.03
2022-10-06T03:38:54.533Z,78.22
2022-10-06T03:39:54.288Z,78.13
2022-10-06T03:40:54.567Z,78.32
2022-10-06T03:41:54.328Z,78.42
2022-10-06T03:42:54.351Z,78.03
2022-10-06T03:43:54.623Z,78.13
2022-10-06T03:44:54.675Z,78.22
2022-10-06T03:45:54.681Z,78.22
2022-10-06T03:46:54.869Z,78.13
2022-10-06T03:47:54.694Z,78.22
2022-10-06T03:48:54.464Z,77.84
2022-10-06T03:49:54.735Z,77.97
2022-10-06T03:50:54.764Z,78.13
2022-10-06T03:51:54.772Z,77.75
2022-10-06T03:52:54.800Z,78.03
2022-10-06T03:53:54.589Z,77.97
2022-10-06T03:54:54.585Z,77.75
2022-10-06T03:55:54.593Z,78.13
2022-10-06T03:56:54.623Z,77.75
2022-10-06T03:57:54.896Z,77.75
2022-10-06T03:58:54.914Z,77.75
2022-10-06T03:59:54.937Z,77.94
2022-10-06T04:00:55.077Z,78.27
2022-10-06T04:01:55.223Z,78.22
2022-10-06T04:02:54.731Z,78.13
2022-10-06T04:03:54.756Z,78.13
2022-10-06T04:04:55.028Z,77.75
2022-10-06T04:05:54.786Z,77.94
2022-10-06T04:06:54.807Z,78.13
2022-10-06T04:07:55.085Z,78.22
2022-10-06T04:08:55.108Z,78.03
2022-10-06T04:09:55.123Z,77.94
2022-10-06T04:10:55.147Z,77.94
2022-10-06T04:11:55.159Z,78.32
2022-10-06T04:12:54.930Z,78.22
2022-10-06T04:13:55.194Z,78.13
2022-10-06T04:15:00.479Z,78.03
2022-10-06T04:15:55.258Z,78.03
2022-10-06T04:16:55.282Z,77.75
2022-10-06T04:17:55.329Z,77.94
2022-10-06T04:18:55.295Z,78.13
2022-10-06T04:19:55.059Z,77.94
2022-10-06T04:20:55.332Z,78.22
2022-10-06T04:21:55.108Z,78.22
2022-10-06T04:22:55.116Z,77.65
2022-10-06T04:23:55.395Z,78.22
2022-10-06T04:24:55.411Z,77.94
2022-10-06T04:25:58.198Z,77.94
2022-10-06T04:26:55.448Z,78.22
2022-10-06T04:27:55.499Z,78.03
2022-10-06T04:28:55.492Z,78.03
2022-10-06T04:29:55.609Z,78.22
2022-10-06T04:30:55.526Z,77.94
2022-10-06T04:31:55.689Z,77.84
2022-10-06T04:32:55.592Z,78.13
2022-10-06T04:33:55.610Z,77.94
2022-10-06T04:34:55.602Z,77.94
2022-10-06T04:35:55.364Z,78.22
2022-10-06T04:36:55.380Z,77.75
2022-10-06T04:37:55.667Z,78.22
2022-10-06T04:38:55.680Z,77.65
2022-10-06T04:39:55.440Z,78.13
2022-10-06T04:40:55.713Z,78.03
2022-10-06T04:41:55.737Z,78.22
2022-10-06T04:42:55.755Z,78.13
2022-10-06T04:43:55.772Z,78.03
2022-10-06T04:44:55.535Z,78.03
2022-10-06T04:45:55.658Z,78.22
2022-10-06T04:46:55.772Z,78.13
2022-10-06T04:47:55.598Z,78.32
2022-10-06T04:48:55.889Z,78.32
2022-10-06T04:49:56.060Z,78.32
2022-10-06T04:50:56.061Z,78.32
2022-10-06T04:51:56.083Z,78.22
2022-10-06T04:52:55.837Z,78.32
2022-10-06T04:53:56.064Z,78.42
2022-10-06T04:54:56.074Z,78.42
2022-10-06T04:55:56.054Z,78.32
2022-10-06T04:56:55.814Z,78.22
2022-10-06T04:57:56.034Z,78.32
2022-10-06T04:58:56.055Z,78.13
2022-10-06T04:59:55.878Z,78.32
2022-10-06T05:00:55.998Z,78.32
2022-10-06T05:01:56.196Z,78.22
2022-10-06T05:02:56.126Z,78.13
2022-10-06T05:03:55.899Z,77.99
2022-10-06T05:04:56.195Z,78.13
2022-10-06T05:05:56.321Z,78.03
2022-10-06T05:06:55.947Z,77.99
2022-10-06T05:07:55.964Z,78.13
2022-10-06T05:08:56.250Z,78.13
2022-10-06T05:09:56.008Z,77.94
2022-10-06T05:10:56.030Z,77.94
2022-10-06T05:11:56.301Z,78.03
2022-10-06T05:12:56.327Z,77.9
2022-10-06T05:13:56.373Z,77.9
2022-10-06T05:14:56.353Z,77.94
2022-10-06T05:15:56.378Z,77.99
2022-10-06T05:16:56.481Z,77.9
2022-10-06T05:17:56.158Z,77.99
2022-10-06T05:18:56.175Z,78.09
2022-10-06T05:19:56.452Z,77.99
2022-10-06T05:20:56.501Z,78.28
2022-10-06T05:21:56.518Z,78.38
2022-10-06T05:22:56.515Z,78.19
2022-10-06T05:23:56.531Z,78.57
2022-10-06T05:24:56.547Z,78.57
2022-10-06T05:25:56.308Z,78.76
2022-10-06T05:27:01.815Z,77.9
2022-10-06T05:27:56.603Z,78.76
2022-10-06T05:28:56.626Z,78.76
2022-10-06T05:29:56.841Z,78.19
2022-10-06T05:30:56.406Z,78.66
2022-10-06T05:31:56.830Z,78.66
2022-10-06T05:32:56.445Z,78.95
2022-10-06T05:33:56.465Z,78.66
2022-10-06T05:34:56.743Z,78.95
2022-10-06T05:35:56.756Z,78.09
2022-10-06T05:36:56.544Z,78.66
2022-10-06T05:37:56.821Z,78.09
2022-10-06T05:38:56.562Z,78.66
2022-10-06T05:39:56.829Z,78.66
2022-10-06T05:40:56.596Z,78.66
2022-10-06T05:41:56.875Z,77.9
2022-10-06T05:42:56.897Z,78.57
2022-10-06T05:43:56.911Z,77.9
2022-10-06T05:44:56.932Z,78.66
2022-10-06T05:45:57.034Z,78.09
2022-10-06T05:46:56.964Z,78.57
2022-10-06T05:47:56.985Z,78.76
2022-10-06T05:48:57.008Z,78.19
2022-10-06T05:49:56.764Z,78.66
2022-10-06T05:50:56.786Z,78.09
2022-10-06T05:51:56.805Z,78.66
2022-10-06T05:52:57.113Z,78.66
2022-10-06T05:53:57.131Z,78.76
2022-10-06T05:54:57.137Z,78.76
2022-10-06T05:55:57.138Z,77.9
2022-10-06T05:56:57.166Z,77.99
2022-10-06T05:57:57.192Z,78.47
2022-10-06T05:58:57.235Z,78.66
2022-10-06T05:59:57.213Z,78.19
2022-10-06T06:00:57.229Z,78.66
2022-10-06T06:01:57.500Z,78.66
2022-10-06T06:02:57.398Z,78.47
2022-10-06T06:03:57.288Z,78.47
2022-10-06T06:04:57.307Z,78.66
2022-10-06T06:05:57.070Z,78.66
2022-10-06T06:06:57.086Z,78.86
2022-10-06T06:07:57.365Z,78.66
2022-10-06T06:08:57.471Z,78.66
2022-10-06T06:09:57.427Z,78.57
2022-10-06T06:10:57.430Z,78.19
2022-10-06T06:11:57.459Z,78.09
2022-10-06T06:12:57.463Z,77.9
2022-10-06T06:13:57.478Z,77.61
2022-10-06T06:14:57.496Z,77.9
2022-10-06T06:15:57.560Z,77.9
2022-10-06T06:16:57.653Z,77.8
2022-10-06T06:17:57.555Z,77.99
2022-10-06T06:18:57.570Z,77.99
2022-10-06T06:19:57.593Z,77.99
2022-10-06T06:20:57.612Z,78.19
2022-10-06T06:21:57.634Z,78.19
2022-10-06T06:22:57.649Z,78.28
2022-10-06T06:23:57.672Z,78.09
2022-10-06T06:24:57.708Z,78.28
2022-10-06T06:26:02.829Z,77.99
2022-10-06T06:26:57.729Z,78.28
2022-10-06T06:27:57.813Z,78.09
2022-10-06T06:28:57.840Z,78.19
2022-10-06T06:29:58.090Z,77.99
2022-10-06T06:30:57.911Z,77.8
2022-10-06T06:31:57.825Z,77.9
2022-10-06T06:32:57.833Z,77.99
2022-10-06T06:33:57.928Z,77.9
2022-10-06T06:34:57.617Z,77.61
2022-10-06T06:35:57.892Z,77.8
2022-10-06T06:36:59.350Z,77.7
2022-10-06T06:37:57.677Z,77.7
2022-10-06T06:38:57.949Z,77.9
2022-10-06T06:39:57.980Z,77.61
2022-10-06T06:40:58.006Z,76.94
2022-10-06T06:41:58.048Z,77.61
2022-10-06T06:42:58.025Z,77.51
2022-10-06T06:43:58.050Z,77.61
2022-10-06T06:44:58.059Z,77.7
2022-10-06T06:45:58.259Z,77.61
2022-10-06T06:46:58.101Z,77.42
2022-10-06T06:47:58.120Z,77.55
2022-10-06T06:48:57.886Z,77.42
2022-10-06T06:49:58.153Z,77.46
2022-10-06T06:50:58.184Z,77.26
2022-10-06T06:51:58.196Z,76.69
2022-10-06T06:52:58.232Z,76.98
2022-10-06T06:53:58.237Z,76.98
2022-10-06T06:54:58.257Z,76.89
2022-10-06T06:55:58.274Z,76.98
2022-10-06T06:56:58.317Z,76.6
2022-10-06T06:57:58.327Z,76.69
2022-10-06T06:58:58.328Z,76.89
2022-10-06T06:59:58.346Z,76.5
2022-10-06T07:00:58.210Z,76.5
2022-10-06T07:01:58.452Z,76.69
2022-10-06T07:02:58.406Z,76.6
2022-10-06T07:04:00.135Z,76.5
2022-10-06T07:04:58.184Z,76.31
2022-10-06T07:05:58.457Z,76.21
2022-10-06T07:06:58.687Z,76.4
2022-10-06T07:07:58.237Z,76.31
2022-10-06T07:08:58.266Z,76.5
2022-10-06T07:09:58.534Z,76.12
2022-10-06T07:10:58.559Z,76.02
2022-10-06T07:11:58.600Z,75.93
2022-10-06T07:12:58.616Z,75.83
2022-10-06T07:13:58.694Z,75.93
2022-10-06T07:14:58.520Z,76.12
2022-10-06T07:15:58.800Z,76.12
2022-10-06T07:16:58.673Z,76.12
2022-10-06T07:17:58.691Z,76.12
2022-10-06T07:18:58.706Z,75.83
2022-10-06T07:19:58.742Z,75.54
2022-10-06T07:20:58.519Z,75.54
2022-10-06T07:21:58.765Z,75.64
2022-10-06T07:22:58.785Z,76.02
2022-10-06T07:23:58.545Z,76.02
2022-10-06T07:24:58.829Z,75.73
2022-10-06T07:25:58.841Z,76.12
2022-10-06T07:26:58.605Z,76.02
2022-10-06T07:27:58.745Z,75.39
2022-10-06T07:28:58.922Z,75.58
2022-10-06T07:29:59.790Z,75.45
2022-10-06T07:30:59.052Z,75.45
2022-10-06T07:31:58.693Z,75.87
2022-10-06T07:32:58.975Z,75.29
2022-10-06T07:33:58.992Z,75.35
2022-10-06T07:34:59.348Z,75.58
2022-10-06T07:35:59.035Z,75.54
2022-10-06T07:37:01.594Z,75.77
2022-10-06T07:37:58.809Z,75.29
2022-10-06T07:38:59.093Z,75.48
2022-10-06T07:39:59.107Z,75.39
2022-10-06T07:41:28.855Z,75.48
2022-10-06T07:41:59.152Z,75.39
2022-10-06T07:42:58.903Z,75.48
2022-10-06T07:43:58.923Z,75.39
2022-10-06T07:44:58.998Z,75.2
2022-10-06T07:45:59.306Z,75.48
2022-10-06T07:46:59.238Z,75.48
2022-10-06T07:47:59.259Z,75.1
2022-10-06T07:48:59.020Z,75.2
2022-10-06T07:49:59.299Z,75.48
2022-10-06T07:50:59.342Z,75.01
2022-10-06T07:51:59.339Z,75.01
2022-10-06T07:52:59.354Z,75.2
2022-10-06T07:53:59.376Z,75.48
2022-10-06T07:54:59.512Z,75.39
2022-10-06T07:55:59.181Z,75.29
2022-10-06T07:56:59.171Z,74.82
2022-10-06T07:57:59.192Z,74.82
2022-10-06T07:58:59.471Z,74.43
2022-10-06T08:00:05.163Z,74.82
2022-10-06T08:00:59.507Z,74.82
2022-10-06T08:01:59.674Z,74.62
2022-10-06T08:02:59.431Z,74.82
2022-10-06T08:03:59.573Z,74.91
2022-10-06T08:04:59.586Z,74.82
2022-10-06T08:05:59.613Z,74.82
2022-10-06T08:06:59.626Z,74.82
2022-10-06T08:07:59.651Z,74.72
2022-10-06T08:08:59.668Z,74.72
2022-10-06T08:09:59.709Z,74.82
2022-10-06T08:11:02.870Z,75.1
2022-10-06T08:11:59.726Z,74.82
2022-10-06T08:12:59.736Z,74.72
2022-10-06T08:13:59.763Z,74.91
2022-10-06T08:15:02.910Z,74.43
2022-10-06T08:15:59.648Z,74.52
2022-10-06T08:16:59.812Z,75.01
2022-10-06T08:17:59.862Z,74.33
2022-10-06T08:18:59.852Z,74.62
2022-10-06T08:19:59.939Z,74.62
2022-10-06T08:20:59.634Z,74.72
2022-10-06T08:22:05.095Z,74.82
2022-10-06T08:22:59.953Z,74.52
2022-10-06T08:23:59.722Z,74.33
2022-10-06T08:25:07.915Z,74.43
2022-10-06T08:25:59.739Z,74.72
2022-10-06T08:27:00.023Z,74.62
2022-10-06T08:28:00.189Z,74.82
2022-10-06T08:29:00.187Z,74.52
2022-10-06T08:30:00.115Z,74.82
2022-10-06T08:30:59.955Z,74.24
2022-10-06T08:32:00.009Z,74.33
2022-10-06T08:33:00.124Z,74.24
2022-10-06T08:34:00.157Z,74.24
2022-10-06T08:35:00.693Z,74.24
2022-10-06T08:36:00.179Z,74.24
2022-10-06T08:37:21.703Z,74.52
2022-10-06T08:38:00.219Z,74.24
2022-10-06T08:38:59.987Z,74.15
2022-10-06T08:40:00.259Z,74.05
2022-10-06T08:41:00.023Z,74.43
2022-10-06T08:42:00.296Z,74.43
2022-10-06T08:43:00.324Z,74.15
2022-10-06T08:44:00.328Z,74.52
2022-10-06T08:45:00.344Z,74.33
2022-10-06T08:46:00.390Z,74.27
2022-10-06T08:47:00.402Z,74.57
2022-10-06T08:48:00.185Z,74.57
2022-10-06T08:49:00.443Z,74.57
2022-10-06T08:50:01.179Z,74.37
2022-10-06T08:51:00.470Z,74.27
2022-10-06T08:52:00.236Z,74.05
2022-10-06T08:53:00.513Z,74.15
2022-10-06T08:54:00.278Z,74.18
2022-10-06T08:55:00.554Z,74.18
2022-10-06T08:56:00.569Z,74.18
2022-10-06T08:57:00.589Z,74.47
2022-10-06T08:58:00.465Z,74.37
2022-10-06T08:59:00.634Z,74.37
2022-10-06T09:00:01.111Z,74.18
2022-10-06T09:01:00.480Z,74.37
2022-10-06T09:02:00.640Z,74.18
2022-10-06T09:03:00.449Z,74.08
2022-10-06T09:04:00.749Z,74.08
2022-10-06T09:05:00.746Z,74.47
2022-10-06T09:06:00.786Z,74.57
2022-10-06T09:07:00.791Z,74.57
2022-10-06T09:08:00.799Z,74.37
2022-10-06T09:09:00.838Z,74.37
2022-10-06T09:10:00.898Z,74.08
2022-10-06T09:11:00.865Z,74.08
2022-10-06T09:12:00.882Z,74.57
2022-10-06T09:13:00.903Z,74.18
2022-10-06T09:14:00.658Z,74.18
2022-10-06T09:15:00.687Z,74.57
2022-10-06T09:16:01.046Z,74.37
2022-10-06T09:17:00.982Z,74.47
2022-10-06T09:18:01.000Z,74.76
2022-10-06T09:19:16.133Z,74.37
2022-10-06T09:20:01.214Z,74.27
2022-10-06T09:21:01.057Z,74.08
2022-10-06T09:22:01.097Z,74.47
2022-10-06T09:23:00.845Z,73.9
2022-10-06T09:24:01.128Z,74.18
2022-10-06T09:25:00.874Z,74.18
2022-10-06T09:26:01.159Z,74.57
2022-10-06T09:27:00.920Z,74.08
2022-10-06T09:28:01.081Z,74.18
2022-10-06T09:29:00.963Z,74.37
2022-10-06T09:30:01.667Z,73.9
2022-10-06T09:31:01.376Z,73.7
2022-10-06T09:32:01.271Z,73.8
2022-10-06T09:33:01.291Z,73.8
2022-10-06T09:34:01.315Z,73.9
2022-10-06T09:35:01.099Z,73.8
2022-10-06T09:36:01.351Z,73.99
2022-10-06T09:37:04.030Z,73.7
2022-10-06T09:38:05.752Z,73.61
2022-10-06T09:39:01.412Z,73.7
2022-10-06T09:40:02.000Z,74.08
2022-10-06T09:41:01.447Z,73.99
2022-10-06T09:42:01.270Z,73.9
2022-10-06T09:43:01.484Z,73.8
2022-10-06T09:44:01.508Z,73.83
2022-10-06T09:45:01.270Z,73.7
2022-10-06T09:46:01.741Z,73.65
2022-10-06T09:47:01.571Z,73.45
2022-10-06T09:48:01.595Z,73.55
2022-10-06T09:49:01.352Z,73.74
2022-10-06T09:50:01.630Z,73.7
2022-10-06T09:51:01.666Z,73.41
2022-10-06T09:52:01.485Z,73.26
2022-10-06T09:53:01.691Z,73.26
2022-10-06T09:54:01.731Z,73.35
2022-10-06T09:55:01.734Z,73.16
2022-10-06T09:56:01.745Z,73.83
2022-10-06T09:57:01.761Z,73.65
2022-10-06T09:58:01.789Z,73.65
2022-10-06T09:59:01.812Z,73.45
2022-10-06T10:00:01.963Z,73.26
2022-10-06T10:01:01.979Z,73.16
2022-10-06T10:02:01.865Z,73.16
2022-10-06T10:03:01.777Z,72.88
2022-10-06T10:04:22.076Z,73.16
2022-10-06T10:05:01.670Z,73.45
2022-10-06T10:06:01.948Z,73.55
2022-10-06T10:07:01.983Z,73.55
2022-10-06T10:08:01.727Z,72.97
2022-10-06T10:09:01.755Z,72.88
2022-10-06T10:10:02.255Z,73.07
2022-10-06T10:11:02.046Z,72.97
2022-10-06T10:12:02.126Z,72.88
2022-10-06T10:13:01.826Z,72.88
2022-10-06T10:14:02.107Z,72.68
2022-10-06T10:15:02.130Z,72.39
2022-10-06T10:16:02.082Z,72.68
2022-10-06T10:17:02.165Z,72.59
2022-10-06T10:18:01.932Z,72.59
2022-10-06T10:19:02.198Z,72.39
2022-10-06T10:20:02.617Z,72.59
2022-10-06T10:21:01.990Z,72.88
2022-10-06T10:22:02.568Z,72.78
2022-10-06T10:23:02.305Z,72.59
2022-10-06T10:24:02.297Z,72.68
2022-10-06T10:25:02.064Z,72.68
2022-10-06T10:26:02.362Z,72.97
2022-10-06T10:27:02.361Z,72.59
2022-10-06T10:28:02.464Z,72.78
2022-10-06T10:29:02.403Z,72.68
2022-10-06T10:30:02.770Z,72.49
2022-10-06T10:31:02.353Z,72.68
2022-10-06T10:32:02.498Z,72.78
2022-10-06T10:33:02.502Z,72.68
2022-10-06T10:34:24.573Z,72.3
2022-10-06T10:35:02.951Z,72.39
2022-10-06T10:36:02.534Z,72.2
2022-10-06T10:37:02.303Z,72.39
2022-10-06T10:38:02.580Z,72.39
2022-10-06T10:39:02.626Z,72.3
2022-10-06T10:40:02.365Z,71.92
2022-10-06T10:41:02.655Z,72.11
2022-10-06T10:42:02.686Z,72.11
2022-10-06T10:43:02.682Z,72.59
2022-10-06T10:44:06.492Z,72.2
2022-10-06T10:45:02.955Z,72.2
2022-10-06T10:46:02.478Z,72.3
2022-10-06T10:47:02.980Z,71.82
2022-10-06T10:48:02.933Z,72.39
2022-10-06T10:49:02.891Z,72.3
2022-10-06T10:50:02.870Z,72.11
2022-10-06T10:51:02.897Z,71.92
2022-10-06T10:52:02.961Z,72.11
2022-10-06T10:53:02.625Z,71.92
2022-10-06T10:54:02.891Z,72.11
2022-10-06T10:55:03.187Z,71.92
2022-10-06T10:56:02.675Z,72.39
2022-10-06T10:57:02.706Z,72.14
2022-10-06T10:58:02.999Z,72.01
2022-10-06T10:59:02.998Z,72.01
2022-10-06T11:00:03.017Z,72.05
2022-10-06T11:01:03.118Z,72.24
2022-10-06T11:02:03.100Z,72.11
2022-10-06T11:03:03.070Z,72.2
2022-10-06T11:04:03.100Z,72.2
2022-10-06T11:05:03.618Z,71.76
2022-10-06T11:06:03.130Z,71.47
2022-10-06T11:07:02.946Z,71.95
2022-10-06T11:08:02.920Z,71.76
2022-10-06T11:09:03.194Z,71.86
2022-10-06T11:10:02.954Z,71.66
2022-10-06T11:11:03.003Z,71.28
2022-10-06T11:12:03.250Z,71.76
2022-10-06T11:13:03.262Z,71.44
2022-10-06T11:14:03.317Z,71.57
2022-10-06T11:15:03.522Z,71.95
2022-10-06T11:16:03.418Z,71.95
2022-10-06T11:17:03.094Z,72.05
2022-10-06T11:18:03.113Z,71.57
2022-10-06T11:19:03.386Z,71.47
2022-10-06T11:20:03.158Z,70.99
2022-10-06T11:21:03.196Z,71.76
2022-10-06T11:22:03.196Z,71.28
2022-10-06T11:23:03.461Z,71.28
2022-10-06T11:24:03.491Z,71.28
2022-10-06T11:25:04.539Z,71.37
2022-10-06T11:26:03.531Z,72.14
2022-10-06T11:27:03.568Z,72.53
2022-10-06T11:28:03.660Z,72.14
2022-10-06T11:29:03.590Z,72.33
2022-10-06T11:30:04.419Z,71.95
2022-10-06T11:31:03.664Z,71.95
2022-10-06T11:32:03.781Z,71.95
2022-10-06T11:33:03.418Z,72.05
2022-10-06T11:34:03.686Z,71.95
2022-10-06T11:35:03.459Z,71.95
2022-10-06T11:36:03.478Z,72.14
2022-10-06T11:37:03.859Z,72.14
2022-10-06T11:38:03.515Z,71.86
2022-10-06T11:39:03.782Z,71.95
2022-10-06T11:40:04.322Z,71.95
2022-10-06T11:41:09.371Z,72.05
2022-10-06T11:42:03.853Z,72.05
2022-10-06T11:43:03.898Z,71.86
2022-10-06T11:44:03.888Z,71.86
2022-10-06T11:45:04.218Z,72.05
2022-10-06T11:46:04.121Z,71.95
2022-10-06T11:47:03.956Z,71.95
2022-10-06T11:48:03.978Z,71.66
2022-10-06T11:49:04.004Z,71.66
2022-10-06T11:50:04.016Z,71.76
2022-10-06T11:51:04.040Z,71.28
2022-10-06T11:52:08.154Z,71.76
2022-10-06T11:53:04.077Z,71.57
2022-10-06T11:54:03.830Z,71.86
2022-10-06T11:55:04.583Z,71.76
2022-10-06T11:56:04.140Z,70.9
2022-10-06T11:57:03.908Z,70.8
2022-10-06T11:58:37.837Z,70.9
2022-10-06T11:59:04.202Z,71.19
2022-10-06T12:00:04.259Z,71.12
2022-10-06T12:01:03.978Z,71.12
2022-10-06T12:02:04.641Z,71.47
2022-10-06T12:03:04.488Z,71.22
2022-10-06T12:04:04.040Z,71.12
2022-10-06T12:05:04.828Z,70.93
2022-10-06T12:06:04.081Z,71.31
2022-10-06T12:07:04.363Z,71.22
2022-10-06T12:08:04.387Z,71.12
2022-10-06T12:09:04.422Z,70.64
2022-10-06T12:10:04.455Z,70.93
2022-10-06T12:11:04.450Z,70.74
2022-10-06T12:12:04.203Z,70.74
2022-10-06T12:13:14.112Z,70.93
2022-10-06T12:17:22.375Z,71.22
2022-10-06T12:18:20.937Z,71.12
2022-10-06T12:19:20.969Z,70.84
2022-10-06T12:20:21.247Z,71.12
2022-10-06T12:21:21.258Z,70.45
2022-10-06T12:22:21.283Z,70.93
2022-10-06T12:23:21.303Z,71.03
2022-10-06T12:24:21.413Z,70.74
2022-10-06T12:25:21.396Z,70.93
2022-10-06T12:26:21.362Z,71.03
2022-10-06T12:27:25.971Z,71.03
2022-10-06T12:28:21.474Z,70.74
2022-10-06T12:29:21.420Z,70.55
2022-10-06T12:30:21.216Z,70.84
2022-10-06T12:31:21.612Z,70.84
2022-10-06T12:32:21.686Z,70.74
2022-10-06T12:33:21.562Z,70.84
2022-10-06T12:34:21.526Z,70.64
2022-10-06T12:35:21.284Z,70.07
2022-10-06T12:36:21.304Z,69.97
2022-10-06T12:37:21.327Z,70.45
2022-10-06T12:38:21.605Z,70.55
2022-10-06T12:39:21.384Z,70.01
2022-10-06T12:40:21.646Z,70.2
2022-10-06T12:41:21.670Z,70.58
2022-10-06T12:42:21.437Z,70.39
2022-10-06T12:43:21.483Z,70.2
2022-10-06T12:44:21.476Z,70.1
2022-10-06T12:45:21.751Z,70.2
2022-10-06T12:46:21.813Z,70.1
2022-10-06T12:47:21.532Z,70.1
2022-10-06T12:48:21.558Z,70.1
2022-10-06T12:49:21.977Z,70.1
2022-10-06T12:50:21.859Z,70.2
2022-10-06T12:51:22.040Z,70.1
2022-10-06T12:52:21.890Z,70.39
2022-10-06T12:53:21.658Z,70.49
2022-10-06T12:54:22.128Z,70.58
2022-10-06T12:55:21.958Z,70.58
2022-10-06T12:56:21.971Z,70.39
2022-10-06T12:57:21.736Z,69.91
2022-10-06T12:58:22.020Z,70.29
2022-10-06T12:59:22.049Z,70.1
2022-10-06T13:00:22.185Z,69.81